sensor_id;sensor_type;location;lat;lon;timestamp;pressure;altitude;pressure_sealevel;temperature;humidity
31285;BME280;56605;51.516;6.742;2022-11-15T00:01:30;100712.56;;;9.16;100.00
31285;BME280;56605;51.516;6.742;2022-11-15T00:03:55;100711.25;;;9.20;100.00
31285;BME280;56605;51.516;6.742;2022-11-15T00:06:20;100710.47;;;9.28;100.00
31285;BME280;56605;51.516;6.742;2022-11-15T00:08:45;100711.66;;;9.34;100.00
31285;BME280;56605;51.516;6.742;2022-11-15T00:11:12;100708.13;;;9.33;100.00
31285;BME280;56605;51.516;6.742;2022-11-15T00:13:37;100704.66;;;9.41;100.00
31285;BME280;56605;51.516;6.742;2022-11-15T00:16:03;100707.19;;;9.51;100.00
31285;BME280;56605;51.516;6.742;2022-11-15T00:18:29;100706.03;;;9.54;100.00
31285;BME280;56605;51.516;6.742;2022-11-15T00:20:55;100706.25;;;9.60;100.00
31285;BME280;56605;51.516;6.742;2022-11-15T00:23:20;100713.38;;;9.60;100.00
31285;BME280;56605;51.516;6.742;2022-11-15T00:25:46;100711.75;;;9.67;100.00
31285;BME280;56605;51.516;6.742;2022-11-15T00:28:11;100712.44;;;9.69;100.00
31285;BME280;56605;51.516;6.742;2022-11-15T00:30:36;100704.75;;;9.66;100.00
31285;BME280;56605;51.516;6.742;2022-11-15T00:33:05;100710.75;;;9.68;100.00
31285;BME280;56605;51.516;6.742;2022-11-15T00:35:32;100703.25;;;9.72;100.00
31285;BME280;56605;51.516;6.742;2022-11-15T00:37:58;100699.09;;;9.77;100.00
31285;BME280;56605;51.516;6.742;2022-11-15T00:40:23;100694.47;;;9.88;100.00
31285;BME280;56605;51.516;6.742;2022-11-15T00:42:48;100699.13;;;9.86;100.00
31285;BME280;56605;51.516;6.742;2022-11-15T00:45:14;100686.97;;;9.92;100.00
31285;BME280;56605;51.516;6.742;2022-11-15T00:47:39;100693.16;;;10.00;100.00
31285;BME280;56605;51.516;6.742;2022-11-15T00:50:05;100685.00;;;10.02;100.00
31285;BME280;56605;51.516;6.742;2022-11-15T00:52:30;100689.16;;;10.05;100.00
31285;BME280;56605;51.516;6.742;2022-11-15T00:54:55;100676.16;;;10.01;100.00
31285;BME280;56605;51.516;6.742;2022-11-15T00:57:21;100679.50;;;10.12;100.00
31285;BME280;56605;51.516;6.742;2022-11-15T00:59:46;100684.16;;;10.18;100.00
31285;BME280;56605;51.516;6.742;2022-11-15T01:02:11;100674.50;;;10.17;100.00
31285;BME280;56605;51.516;6.742;2022-11-15T01:04:37;100682.16;;;10.20;100.00
31285;BME280;56605;51.516;6.742;2022-11-15T01:07:02;100682.31;;;10.19;100.00
31285;BME280;56605;51.516;6.742;2022-11-15T01:09:27;100686.66;;;10.20;100.00
31285;BME280;56605;51.516;6.742;2022-11-15T01:11:52;100690.81;;;10.22;100.00
31285;BME280;56605;51.516;6.742;2022-11-15T01:14:18;100674.97;;;10.21;100.00
31285;BME280;56605;51.516;6.742;2022-11-15T01:16:43;100684.00;;;10.20;100.00
31285;BME280;56605;51.516;6.742;2022-11-15T01:19:09;100678.16;;;10.33;100.00
31285;BME280;56605;51.516;6.742;2022-11-15T01:21:34;100681.66;;;10.33;100.00
31285;BME280;56605;51.516;6.742;2022-11-15T01:23:59;100678.47;;;10.30;100.00
31285;BME280;56605;51.516;6.742;2022-11-15T01:26:25;100684.34;;;10.33;100.00
31285;BME280;56605;51.516;6.742;2022-11-15T01:28:50;100677.31;;;10.32;100.00
31285;BME280;56605;51.516;6.742;2022-11-15T01:31:19;100665.97;;;10.38;100.00
31285;BME280;56605;51.516;6.742;2022-11-15T01:33:45;100666.47;;;10.34;100.00
31285;BME280;56605;51.516;6.742;2022-11-15T01:36:14;100670.28;;;10.39;100.00
31285;BME280;56605;51.516;6.742;2022-11-15T01:38:40;100667.00;;;10.46;100.00
31285;BME280;56605;51.516;6.742;2022-11-15T01:41:05;100652.13;;;10.43;100.00
31285;BME280;56605;51.516;6.742;2022-11-15T01:43:33;100646.63;;;10.53;100.00
31285;BME280;56605;51.516;6.742;2022-11-15T01:46:06;100649.47;;;10.60;100.00
31285;BME280;56605;51.516;6.742;2022-11-15T01:48:36;100652.09;;;10.68;100.00
31285;BME280;56605;51.516;6.742;2022-11-15T01:51:06;100652.44;;;10.73;100.00
31285;BME280;56605;51.516;6.742;2022-11-15T01:53:33;100647.75;;;10.75;100.00
31285;BME280;56605;51.516;6.742;2022-11-15T01:56:02;100654.09;;;10.74;100.00
31285;BME280;56605;51.516;6.742;2022-11-15T01:58:28;100648.25;;;10.79;100.00
31285;BME280;56605;51.516;6.742;2022-11-15T02:00:53;100648.56;;;10.93;100.00
31285;BME280;56605;51.516;6.742;2022-11-15T02:03:20;100642.81;;;11.04;100.00
31285;BME280;56605;51.516;6.742;2022-11-15T02:05:47;100644.41;;;10.82;100.00
31285;BME280;56605;51.516;6.742;2022-11-15T02:08:14;100647.25;;;10.80;100.00
31285;BME280;56605;51.516;6.742;2022-11-15T02:10:48;100639.09;;;10.73;100.00
31285;BME280;56605;51.516;6.742;2022-11-15T02:13:15;100634.22;;;10.77;100.00
31285;BME280;56605;51.516;6.742;2022-11-15T02:16:04;100630.03;;;10.83;100.00
31285;BME280;56605;51.516;6.742;2022-11-15T02:18:37;100630.38;;;10.80;100.00
31285;BME280;56605;51.516;6.742;2022-11-15T02:23:56;100627.66;;;10.96;100.00
31285;BME280;56605;51.516;6.742;2022-11-15T02:29:11;100629.41;;;11.12;100.00
31285;BME280;56605;51.516;6.742;2022-11-15T02:32:06;100614.25;;;11.04;100.00
31285;BME280;56605;51.516;6.742;2022-11-15T02:37:11;100637.47;;;11.04;100.00
31285;BME280;56605;51.516;6.742;2022-11-15T02:39:55;100635.44;;;11.06;100.00
31285;BME280;56605;51.516;6.742;2022-11-15T02:42:25;100624.69;;;10.91;100.00
31285;BME280;56605;51.516;6.742;2022-11-15T02:45:13;100625.94;;;11.03;100.00
31285;BME280;56605;51.516;6.742;2022-11-15T02:47:44;100625.72;;;11.22;100.00
31285;BME280;56605;51.516;6.742;2022-11-15T02:50:12;100619.41;;;11.14;100.00
31285;BME280;56605;51.516;6.742;2022-11-15T02:52:39;100616.72;;;11.14;100.00
31285;BME280;56605;51.516;6.742;2022-11-15T02:55:04;100621.91;;;11.16;100.00
31285;BME280;56605;51.516;6.742;2022-11-15T02:57:58;100615.06;;;11.13;100.00
31285;BME280;56605;51.516;6.742;2022-11-15T03:00:34;100619.34;;;11.23;100.00
31285;BME280;56605;51.516;6.742;2022-11-15T03:11:49;100610.47;;;11.31;100.00
31285;BME280;56605;51.516;6.742;2022-11-15T03:14:25;100603.75;;;11.35;100.00
31285;BME280;56605;51.516;6.742;2022-11-15T03:19:30;100603.16;;;11.24;100.00
31285;BME280;56605;51.516;6.742;2022-11-15T03:22:00;100605.13;;;11.31;100.00
31285;BME280;56605;51.516;6.742;2022-11-15T03:24:28;100605.59;;;11.34;100.00
31285;BME280;56605;51.516;6.742;2022-11-15T03:26:57;100611.91;;;11.41;100.00
31285;BME280;56605;51.516;6.742;2022-11-15T03:29:27;100610.41;;;11.39;100.00
31285;BME280;56605;51.516;6.742;2022-11-15T03:32:02;100611.59;;;11.36;100.00
31285;BME280;56605;51.516;6.742;2022-11-15T03:34:38;100609.59;;;11.38;100.00
31285;BME280;56605;51.516;6.742;2022-11-15T03:37:05;100601.41;;;11.40;100.00
31285;BME280;56605;51.516;6.742;2022-11-15T03:39:31;100597.41;;;11.36;100.00
31285;BME280;56605;51.516;6.742;2022-11-15T03:45:02;100591.53;;;11.40;100.00
31285;BME280;56605;51.516;6.742;2022-11-15T03:47:34;100594.53;;;11.37;100.00
31285;BME280;56605;51.516;6.742;2022-11-15T03:50:06;100593.22;;;11.41;100.00
31285;BME280;56605;51.516;6.742;2022-11-15T03:52:33;100597.72;;;11.41;100.00
31285;BME280;56605;51.516;6.742;2022-11-15T03:55:01;100589.97;;;11.46;100.00
31285;BME280;56605;51.516;6.742;2022-11-15T03:57:27;100592.47;;;11.48;100.00
31285;BME280;56605;51.516;6.742;2022-11-15T03:59:52;100594.00;;;11.50;100.00
31285;BME280;56605;51.516;6.742;2022-11-15T04:02:18;100584.00;;;11.44;100.00
31285;BME280;56605;51.516;6.742;2022-11-15T04:04:43;100590.28;;;11.51;100.00
31285;BME280;56605;51.516;6.742;2022-11-15T04:07:08;100585.59;;;11.53;100.00
31285;BME280;56605;51.516;6.742;2022-11-15T04:09:34;100594.16;;;11.49;100.00
31285;BME280;56605;51.516;6.742;2022-11-15T04:12:19;100588.81;;;11.49;100.00
31285;BME280;56605;51.516;6.742;2022-11-15T04:14:58;100577.28;;;11.48;100.00
31285;BME280;56605;51.516;6.742;2022-11-15T04:17:47;100579.44;;;11.53;100.00
31285;BME280;56605;51.516;6.742;2022-11-15T04:20:15;100572.94;;;11.47;100.00
31285;BME280;56605;51.516;6.742;2022-11-15T04:23:01;100584.19;;;11.43;100.00
31285;BME280;56605;51.516;6.742;2022-11-15T04:25:46;100581.44;;;11.51;100.00
31285;BME280;56605;51.516;6.742;2022-11-15T04:28:13;100585.41;;;11.55;100.00
31285;BME280;56605;51.516;6.742;2022-11-15T04:30:39;100578.22;;;11.56;100.00
31285;BME280;56605;51.516;6.742;2022-11-15T04:33:04;100581.22;;;11.61;100.00
31285;BME280;56605;51.516;6.742;2022-11-15T04:35:30;100580.66;;;11.65;100.00
31285;BME280;56605;51.516;6.742;2022-11-15T04:37:56;100585.22;;;11.57;100.00
31285;BME280;56605;51.516;6.742;2022-11-15T04:40:22;100576.56;;;11.54;100.00
31285;BME280;56605;51.516;6.742;2022-11-15T04:42:47;100581.44;;;11.51;100.00
31285;BME280;56605;51.516;6.742;2022-11-15T04:45:13;100587.13;;;11.48;100.00
31285;BME280;56605;51.516;6.742;2022-11-15T04:47:38;100579.63;;;11.43;100.00
31285;BME280;56605;51.516;6.742;2022-11-15T04:50:04;100587.97;;;11.48;100.00
31285;BME280;56605;51.516;6.742;2022-11-15T04:52:29;100575.56;;;11.56;100.00
31285;BME280;56605;51.516;6.742;2022-11-15T04:54:54;100578.22;;;11.56;100.00
31285;BME280;56605;51.516;6.742;2022-11-15T04:57:20;100583.22;;;11.59;100.00
31285;BME280;56605;51.516;6.742;2022-11-15T04:59:45;100578.53;;;11.61;100.00
31285;BME280;56605;51.516;6.742;2022-11-15T05:02:11;100581.50;;;11.66;100.00
31285;BME280;56605;51.516;6.742;2022-11-15T05:04:36;100582.44;;;11.73;100.00
31285;BME280;56605;51.516;6.742;2022-11-15T05:07:01;100581.72;;;11.79;100.00
31285;BME280;56605;51.516;6.742;2022-11-15T05:09:29;100586.31;;;11.71;100.00
31285;BME280;56605;51.516;6.742;2022-11-15T05:11:54;100589.63;;;11.49;100.00
31285;BME280;56605;51.516;6.742;2022-11-15T05:14:19;100588.25;;;11.53;100.00
31285;BME280;56605;51.516;6.742;2022-11-15T05:16:45;100576.22;;;11.58;100.00
31285;BME280;56605;51.516;6.742;2022-11-15T05:19:10;100583.69;;;11.62;100.00
31285;BME280;56605;51.516;6.742;2022-11-15T05:21:36;100582.97;;;11.69;100.00
31285;BME280;56605;51.516;6.742;2022-11-15T05:24:02;100580.78;;;11.72;100.00
31285;BME280;56605;51.516;6.742;2022-11-15T05:26:27;100579.00;;;11.64;100.00
31285;BME280;56605;51.516;6.742;2022-11-15T05:28:54;100570.97;;;11.64;100.00
31285;BME280;56605;51.516;6.742;2022-11-15T05:31:20;100570.81;;;11.66;100.00
31285;BME280;56605;51.516;6.742;2022-11-15T05:33:45;100571.28;;;11.70;100.00
31285;BME280;56605;51.516;6.742;2022-11-15T05:36:22;100573.00;;;11.62;100.00
31285;BME280;56605;51.516;6.742;2022-11-15T05:38:51;100572.00;;;11.63;100.00
31285;BME280;56605;51.516;6.742;2022-11-15T05:41:19;100565.63;;;11.64;100.00
31285;BME280;56605;51.516;6.742;2022-11-15T05:43:46;100566.16;;;11.60;100.00
31285;BME280;56605;51.516;6.742;2022-11-15T05:46:13;100570.31;;;11.62;100.00
31285;BME280;56605;51.516;6.742;2022-11-15T05:48:41;100569.69;;;11.60;100.00
31285;BME280;56605;51.516;6.742;2022-11-15T05:51:09;100566.34;;;11.58;100.00
31285;BME280;56605;51.516;6.742;2022-11-15T05:53:34;100567.53;;;11.56;100.00
31285;BME280;56605;51.516;6.742;2022-11-15T05:56:00;100567.38;;;11.57;100.00
31285;BME280;56605;51.516;6.742;2022-11-15T05:58:25;100565.72;;;11.56;100.00
31285;BME280;56605;51.516;6.742;2022-11-15T06:00:51;100561.16;;;11.57;100.00
31285;BME280;56605;51.516;6.742;2022-11-15T06:03:16;100570.38;;;11.54;100.00
31285;BME280;56605;51.516;6.742;2022-11-15T06:05:41;100568.66;;;11.61;100.00
31285;BME280;56605;51.516;6.742;2022-11-15T06:08:07;100572.03;;;11.55;100.00
31285;BME280;56605;51.516;6.742;2022-11-15T06:10:32;100574.91;;;11.53;100.00
31285;BME280;56605;51.516;6.742;2022-11-15T06:13:03;100569.94;;;11.50;100.00
31285;BME280;56605;51.516;6.742;2022-11-15T06:15:28;100580.41;;;11.52;100.00
31285;BME280;56605;51.516;6.742;2022-11-15T06:17:57;100583.47;;;11.49;100.00
31285;BME280;56605;51.516;6.742;2022-11-15T06:20:26;100578.47;;;11.46;100.00
31285;BME280;56605;51.516;6.742;2022-11-15T06:22:59;100581.78;;;11.48;100.00
31285;BME280;56605;51.516;6.742;2022-11-15T06:25:26;100580.13;;;11.47;100.00
31285;BME280;56605;51.516;6.742;2022-11-15T06:27:52;100572.78;;;11.49;100.00
31285;BME280;56605;51.516;6.742;2022-11-15T06:30:18;100580.63;;;11.50;100.00
31285;BME280;56605;51.516;6.742;2022-11-15T06:32:43;100590.28;;;11.51;100.00
31285;BME280;56605;51.516;6.742;2022-11-15T06:35:09;100573.78;;;11.48;100.00
31285;BME280;56605;51.516;6.742;2022-11-15T06:37:34;100584.47;;;11.48;100.00
31285;BME280;56605;51.516;6.742;2022-11-15T06:39:59;100583.94;;;11.52;100.00
31285;BME280;56605;51.516;6.742;2022-11-15T06:42:24;100589.63;;;11.49;100.00
31285;BME280;56605;51.516;6.742;2022-11-15T06:44:50;100582.09;;;11.53;100.00
31285;BME280;56605;51.516;6.742;2022-11-15T06:47:15;100585.97;;;11.50;100.00
31285;BME280;56605;51.516;6.742;2022-11-15T06:49:40;100584.47;;;11.48;100.00
31285;BME280;56605;51.516;6.742;2022-11-15T06:52:06;100592.03;;;11.44;100.00
31285;BME280;56605;51.516;6.742;2022-11-15T06:54:31;100590.88;;;11.38;100.00
31285;BME280;56605;51.516;6.742;2022-11-15T06:56:56;100595.75;;;11.35;100.00
31285;BME280;56605;51.516;6.742;2022-11-15T06:59:21;100593.75;;;11.37;100.00
31285;BME280;56605;51.516;6.742;2022-11-15T07:01:47;100601.94;;;11.35;100.00
31285;BME280;56605;51.516;6.742;2022-11-15T07:04:12;100599.91;;;11.37;100.00
31285;BME280;56605;51.516;6.742;2022-11-15T07:06:37;100606.75;;;11.40;100.00
31285;BME280;56605;51.516;6.742;2022-11-15T07:09:03;100609.28;;;11.33;100.00
31285;BME280;56605;51.516;6.742;2022-11-15T07:11:28;100614.34;;;11.28;100.00
31285;BME280;56605;51.516;6.742;2022-11-15T07:13:53;100618.16;;;11.25;100.00
31285;BME280;56605;51.516;6.742;2022-11-15T07:16:19;100627.03;;;11.26;100.00
31285;BME280;56605;51.516;6.742;2022-11-15T07:18:44;100624.53;;;11.24;100.00
31285;BME280;56605;51.516;6.742;2022-11-15T07:21:10;100623.50;;;11.25;100.00
31285;BME280;56605;51.516;6.742;2022-11-15T07:23:37;100627.88;;;11.26;100.00
31285;BME280;56605;51.516;6.742;2022-11-15T07:26:03;100634.88;;;11.27;100.00
31285;BME280;56605;51.516;6.742;2022-11-15T07:28:28;100624.84;;;11.29;100.00
31285;BME280;56605;51.516;6.742;2022-11-15T07:30:54;100631.97;;;11.37;100.00
31285;BME280;56605;51.516;6.742;2022-11-15T07:33:20;100639.00;;;11.38;100.00
31285;BME280;56605;51.516;6.742;2022-11-15T07:35:45;100635.97;;;11.41;100.00
31285;BME280;56605;51.516;6.742;2022-11-15T07:38:13;100637.28;;;11.46;100.00
31285;BME280;56605;51.516;6.742;2022-11-15T07:40:40;100631.75;;;11.47;100.00
31285;BME280;56605;51.516;6.742;2022-11-15T07:43:07;100648.44;;;11.49;100.00
31285;BME280;56605;51.516;6.742;2022-11-15T07:45:32;100642.81;;;11.44;100.00
31285;BME280;56605;51.516;6.742;2022-11-15T07:48:01;100649.28;;;11.50;100.00
31285;BME280;56605;51.516;6.742;2022-11-15T07:50:27;100649.75;;;11.53;100.00
31285;BME280;56605;51.516;6.742;2022-11-15T07:52:56;100645.56;;;11.59;100.00
31285;BME280;56605;51.516;6.742;2022-11-15T07:55:22;100655.34;;;11.67;100.00
31285;BME280;56605;51.516;6.742;2022-11-15T07:57:48;100656.72;;;11.63;100.00
31285;BME280;56605;51.516;6.742;2022-11-15T08:00:14;100671.69;;;11.49;100.00
31285;BME280;56605;51.516;6.742;2022-11-15T08:02:39;100663.50;;;11.10;100.00
31285;BME280;56605;51.516;6.742;2022-11-15T08:05:05;100673.22;;;11.03;100.00
31285;BME280;56605;51.516;6.742;2022-11-15T08:07:30;100677.56;;;10.96;100.00
31285;BME280;56605;51.516;6.742;2022-11-15T08:09:57;100673.28;;;10.86;100.00
31285;BME280;56605;51.516;6.742;2022-11-15T08:12:22;100681.78;;;10.82;100.00
31285;BME280;56605;51.516;6.742;2022-11-15T08:14:47;100685.47;;;10.72;100.00
31285;BME280;56605;51.516;6.742;2022-11-15T08:17:13;100698.34;;;10.69;100.00
31285;BME280;56605;51.516;6.742;2022-11-15T08:19:38;100696.69;;;10.59;100.00
31285;BME280;56605;51.516;6.742;2022-11-15T08:22:04;100690.84;;;10.39;100.00
31285;BME280;56605;51.516;6.742;2022-11-15T08:24:29;100689.31;;;10.28;100.00
31285;BME280;56605;51.516;6.742;2022-11-15T08:26:54;100694.16;;;10.16;100.00
31285;BME280;56605;51.516;6.742;2022-11-15T08:29:20;100691.97;;;10.03;100.00
31285;BME280;56605;51.516;6.742;2022-11-15T08:31:45;100691.50;;;9.99;100.00
31285;BME280;56605;51.516;6.742;2022-11-15T08:34:10;100689.81;;;9.98;100.00
31285;BME280;56605;51.516;6.742;2022-11-15T08:36:35;100689.66;;;10.00;100.00
31285;BME280;56605;51.516;6.742;2022-11-15T08:39:01;100689.66;;;10.00;100.00
31285;BME280;56605;51.516;6.742;2022-11-15T08:41:31;100693.97;;;10.01;100.00
31285;BME280;56605;51.516;6.742;2022-11-15T08:43:56;100689.00;;;10.06;100.00
31285;BME280;56605;51.516;6.742;2022-11-15T08:46:21;100679.97;;;10.07;100.00
31285;BME280;56605;51.516;6.742;2022-11-15T08:48:47;100680.16;;;10.06;100.00
31285;BME280;56605;51.516;6.742;2022-11-15T08:51:12;100671.50;;;10.04;100.00
31285;BME280;56605;51.516;6.742;2022-11-15T08:53:38;100665.13;;;10.13;100.00
31285;BME280;56605;51.516;6.742;2022-11-15T08:56:07;100666.31;;;10.27;100.00
31285;BME280;56605;51.516;6.742;2022-11-15T08:58:33;100656.81;;;10.33;100.00
31285;BME280;56605;51.516;6.742;2022-11-15T09:00:58;100660.16;;;10.35;100.00
31285;BME280;56605;51.516;6.742;2022-11-15T09:03:24;100662.50;;;10.46;100.00
31285;BME280;56605;51.516;6.742;2022-11-15T09:05:58;100647.13;;;10.57;100.00
31285;BME280;56605;51.516;6.742;2022-11-15T09:08:24;100649.94;;;10.72;100.00
31285;BME280;56605;51.516;6.742;2022-11-15T09:10:50;100653.19;;;10.99;100.00
31285;BME280;56605;51.516;6.742;2022-11-15T09:13:15;100653.28;;;11.14;100.00
31285;BME280;56605;51.516;6.742;2022-11-15T09:15:41;100653.28;;;11.22;100.00
31285;BME280;56605;51.516;6.742;2022-11-15T09:18:06;100649.94;;;11.20;100.00
31285;BME280;56605;51.516;6.742;2022-11-15T09:20:32;100645.94;;;11.16;100.00
31285;BME280;56605;51.516;6.742;2022-11-15T09:23:03;100646.47;;;11.11;100.00
31285;BME280;56605;51.516;6.742;2022-11-15T09:25:30;100651.19;;;11.01;100.00
31285;BME280;56605;51.516;6.742;2022-11-15T09:27:55;100643.22;;;10.84;100.00
31285;BME280;56605;51.516;6.742;2022-11-15T09:30:22;100642.56;;;10.74;100.00
31285;BME280;56605;51.516;6.742;2022-11-15T09:32:47;100642.94;;;10.62;100.00
31285;BME280;56605;51.516;6.742;2022-11-15T09:35:13;100639.44;;;10.62;100.00
31285;BME280;56605;51.516;6.742;2022-11-15T09:37:38;100643.94;;;10.70;100.00
31285;BME280;56605;51.516;6.742;2022-11-15T09:40:04;100643.38;;;10.83;100.00
31285;BME280;56605;51.516;6.742;2022-11-15T09:42:48;100641.88;;;11.28;100.00
31285;BME280;56605;51.516;6.742;2022-11-15T09:50:43;100616.22;;;12.66;100.00
31285;BME280;56605;51.516;6.742;2022-11-15T09:53:16;100611.44;;;12.77;100.00
31285;BME280;56605;51.516;6.742;2022-11-15T09:55:58;100601.97;;;13.11;100.00
31285;BME280;56605;51.516;6.742;2022-11-15T09:58:33;100601.44;;;12.86;100.00
31285;BME280;56605;51.516;6.742;2022-11-15T10:01:06;100599.50;;;12.79;100.00
31285;BME280;56605;51.516;6.742;2022-11-15T10:03:38;100590.00;;;13.29;100.00
31285;BME280;56605;51.516;6.742;2022-11-15T10:06:11;100585.34;;;13.01;100.00
31285;BME280;56605;51.516;6.742;2022-11-15T10:09:01;100589.84;;;13.52;100.00
31285;BME280;56605;51.516;6.742;2022-11-15T10:11:32;100587.28;;;13.44;100.00
31285;BME280;56605;51.516;6.742;2022-11-15T10:14:01;100578.59;;;13.64;100.00
31285;BME280;56605;51.516;6.742;2022-11-15T10:24:45;100575.56;;;14.53;96.98
31285;BME280;56605;51.516;6.742;2022-11-15T10:27:18;100562.56;;;14.56;96.73
31285;BME280;56605;51.516;6.742;2022-11-15T10:29:50;100566.03;;;14.50;94.75
31285;BME280;56605;51.516;6.742;2022-11-15T10:32:20;100562.50;;;14.78;93.14
31285;BME280;56605;51.516;6.742;2022-11-15T10:34:47;100553.47;;;15.00;87.19
31285;BME280;56605;51.516;6.742;2022-11-15T10:37:13;100548.16;;;15.20;82.09
31285;BME280;56605;51.516;6.742;2022-11-15T10:39:38;100551.09;;;15.32;77.81
31285;BME280;56605;51.516;6.742;2022-11-15T10:42:27;100537.41;;;15.20;75.36
31285;BME280;56605;51.516;6.742;2022-11-15T10:44:53;100534.09;;;15.25;77.00
31285;BME280;56605;51.516;6.742;2022-11-15T10:49:57;100524.16;;;16.20;68.91
31285;BME280;56605;51.516;6.742;2022-11-15T10:52:23;100517.78;;;16.21;66.07
31285;BME280;56605;51.516;6.742;2022-11-15T10:57:38;100523.22;;;16.60;64.33
31285;BME280;56605;51.516;6.742;2022-11-15T11:00:13;100513.97;;;16.42;63.81
31285;BME280;56605;51.516;6.742;2022-11-15T11:08:00;100523.97;;;15.27;66.61
31285;BME280;56605;51.516;6.742;2022-11-15T11:10:27;100510.34;;;15.49;65.89
31285;BME280;56605;51.516;6.742;2022-11-15T11:12:53;100504.13;;;15.89;64.47
31285;BME280;56605;51.516;6.742;2022-11-15T11:15:18;100498.72;;;16.02;63.92
31285;BME280;56605;51.516;6.742;2022-11-15T11:17:55;100495.44;;;15.87;62.05
31285;BME280;56605;51.516;6.742;2022-11-15T11:20:44;100491.41;;;16.37;61.84
31285;BME280;56605;51.516;6.742;2022-11-15T11:23:45;100507.56;;;16.89;59.47
31285;BME280;56605;51.516;6.742;2022-11-15T11:26:34;100501.81;;;16.19;60.31
31285;BME280;56605;51.516;6.742;2022-11-15T11:37:49;100480.25;;;14.00;66.91
31285;BME280;56605;51.516;6.742;2022-11-15T11:41:26;100482.06;;;13.92;67.26
31285;BME280;56605;51.516;6.742;2022-11-15T11:43:31;100492.41;;;14.31;65.54
31285;BME280;56605;51.516;6.742;2022-11-15T11:51:34;100495.19;;;13.80;67.87
31285;BME280;56605;51.516;6.742;2022-11-15T11:54:03;100497.66;;;13.53;65.17
31285;BME280;56605;51.516;6.742;2022-11-15T11:56:35;100483.75;;;14.00;64.04
31285;BME280;56605;51.516;6.742;2022-11-15T11:59:10;100485.72;;;14.20;64.36
31285;BME280;56605;51.516;6.742;2022-11-15T12:01:43;100473.63;;;14.38;62.70
31285;BME280;56605;51.516;6.742;2022-11-15T12:04:29;100476.66;;;14.21;63.91
31285;BME280;56605;51.516;6.742;2022-11-15T12:07:08;100473.03;;;14.42;62.55
31285;BME280;56605;51.516;6.742;2022-11-15T12:09:42;100468.25;;;14.80;61.52
31285;BME280;56605;51.516;6.742;2022-11-15T12:12:15;100467.09;;;15.43;59.27
31285;BME280;56605;51.516;6.742;2022-11-15T12:14:50;100464.81;;;15.67;57.75
31285;BME280;56605;51.516;6.742;2022-11-15T12:17:21;100460.03;;;15.76;57.17
31285;BME280;56605;51.516;6.742;2022-11-15T12:19:48;100454.88;;;15.47;54.77
31285;BME280;56605;51.516;6.742;2022-11-15T12:22:19;100451.34;;;15.81;54.92
31285;BME280;56605;51.516;6.742;2022-11-15T12:30:18;100426.09;;;15.01;56.56
31285;BME280;56605;51.516;6.742;2022-11-15T12:32:58;100427.69;;;14.75;56.82
31285;BME280;56605;51.516;6.742;2022-11-15T12:35:35;100423.50;;;14.58;56.71
31285;BME280;56605;51.516;6.742;2022-11-15T12:38:02;100424.06;;;14.40;56.40
31285;BME280;56605;51.516;6.742;2022-11-15T12:40:36;100414.09;;;14.83;55.31
31285;BME280;56605;51.516;6.742;2022-11-15T12:43:05;100405.97;;;14.76;54.73
31285;BME280;56605;51.516;6.742;2022-11-15T12:45:38;100403.34;;;14.90;55.03
31285;BME280;56605;51.516;6.742;2022-11-15T12:56:09;100383.34;;;16.13;50.31
31285;BME280;56605;51.516;6.742;2022-11-15T13:06:47;100361.50;;;14.60;52.13
31285;BME280;56605;51.516;6.742;2022-11-15T13:11:57;100347.94;;;15.09;52.31
31285;BME280;56605;51.516;6.742;2022-11-15T13:19:46;100331.94;;;15.62;52.25
31285;BME280;56605;51.516;6.742;2022-11-15T13:22:12;100342.13;;;15.39;51.74
31285;BME280;56605;51.516;6.742;2022-11-15T13:24:56;100329.97;;;15.09;52.90
31285;BME280;56605;51.516;6.742;2022-11-15T13:27:22;100336.13;;;15.24;53.35
31285;BME280;56605;51.516;6.742;2022-11-15T13:29:47;100335.56;;;14.88;55.46
31285;BME280;56605;51.516;6.742;2022-11-15T13:32:14;100329.88;;;14.49;56.84
31285;BME280;56605;51.516;6.742;2022-11-15T13:34:45;100330.25;;;14.25;58.30
31285;BME280;56605;51.516;6.742;2022-11-15T13:39:47;100316.72;;;13.91;60.17
31285;BME280;56605;51.516;6.742;2022-11-15T13:42:18;100313.19;;;13.84;60.83
31285;BME280;56605;51.516;6.742;2022-11-15T13:47:25;100288.34;;;13.68;61.98
31285;BME280;56605;51.516;6.742;2022-11-15T13:49:52;100293.69;;;13.62;62.54
31285;BME280;56605;51.516;6.742;2022-11-15T13:52:17;100290.44;;;13.73;61.63
31285;BME280;56605;51.516;6.742;2022-11-15T13:54:46;100284.13;;;14.01;61.61
31285;BME280;56605;51.516;6.742;2022-11-15T13:57:24;100277.81;;;14.23;60.94
31285;BME280;56605;51.516;6.742;2022-11-15T13:59:54;100272.88;;;14.47;60.40
31285;BME280;56605;51.516;6.742;2022-11-15T14:02:26;100273.50;;;14.49;60.38
31285;BME280;56605;51.516;6.742;2022-11-15T14:05:02;100265.78;;;14.18;60.73
31285;BME280;56605;51.516;6.742;2022-11-15T14:07:29;100265.22;;;14.37;61.74
31285;BME280;56605;51.516;6.742;2022-11-15T14:09:55;100254.50;;;14.64;61.09
31285;BME280;56605;51.516;6.742;2022-11-15T14:12:25;100258.59;;;14.39;61.67
31285;BME280;56605;51.516;6.742;2022-11-15T14:14:51;100248.25;;;14.16;62.37
31285;BME280;56605;51.516;6.742;2022-11-15T14:19:55;100245.22;;;13.70;64.96
31285;BME280;56605;51.516;6.742;2022-11-15T14:22:25;100237.72;;;13.52;65.86
31285;BME280;56605;51.516;6.742;2022-11-15T14:27:38;100236.44;;;13.48;66.18
31285;BME280;56605;51.516;6.742;2022-11-15T14:30:05;100234.97;;;13.38;67.14
31285;BME280;56605;51.516;6.742;2022-11-15T14:32:48;100226.84;;;13.25;68.26